Time;durP1;ratioP1;P1;durP2;ratioP2;P2;SDS_P1;SDS_P2;PMS_P1;PMS_P2;Temp;Humidity;BMP_temperature;BMP_pressure;BME280_temperature;BME280_humidity;BME280_pressure;Samples;Min_cycle;Max_cycle;Signal;HPM_P1;HPM_P2
2021/12/10 00:01:30;;;;;;;3.40;2.80;;;;;;;;;;4995718;28;20409;-64
2021/12/10 00:03:57;;;;;;;5.33;2.17;;;;;;;;;;4995740;28;20400;-64
2021/12/10 00:06:29;;;;;;;5.47;2.00;;;;;;;;;;4995926;28;20772;-64
2021/12/10 00:08:59;;;;;;;8.80;2.83;;;;;;;;;;4995593;28;20409;-64
2021/12/10 00:11:32;;;;;;;2.83;2.13;;;;;;;;;;4995840;28;20500;-64
2021/12/10 00:13:58;;;;;;;5.33;2.30;;;;;;;;;;4995554;28;20532;-64
2021/12/10 00:16:24;;;;;;;4.83;2.30;;;;;;;;;;4995488;28;20765;-64
2021/12/10 00:18:55;;;;;;;3.83;2.30;;;;;;;;;;4995273;28;20423;-64
2021/12/10 00:21:26;;;;;;;5.70;1.90;;;;;;;;;;4995701;28;20395;-64
2021/12/10 00:23:54;;;;;;;9.10;2.87;;;;;;;;;;4995471;28;20437;-64
2021/12/10 00:26:23;;;;;;;3.27;2.10;;;;;;;;;;4995260;28;20439;-64
2021/12/10 00:28:50;;;;;;;7.90;3.00;;;;;;;;;;4995332;28;20401;-64
2021/12/10 00:34:08;;;;;;;3.77;1.80;;;;;;;;;;4995304;28;20946;-64
2021/12/10 00:36:36;;;;;;;5.63;2.00;;;;;;;;;;4995010;28;20385;-64
2021/12/10 00:39:04;;;;;;;8.60;2.53;;;;;;;;;;4995086;28;20751;-64
2021/12/10 00:41:30;;;;;;;3.83;1.90;;;;;;;;;;4994962;28;20842;-64
2021/12/10 00:43:56;;;;;;;4.30;2.00;;;;;;;;;;4994959;28;20408;-64
2021/12/10 00:46:22;;;;;;;8.43;2.50;;;;;;;;;;4994766;28;20404;-64
2021/12/10 00:48:48;;;;;;;5.20;2.50;;;;;;;;;;4994836;28;20479;-64
2021/12/10 00:51:15;;;;;;;3.50;2.53;;;;;;;;;;4994813;28;20415;-64
2021/12/10 00:53:41;;;;;;;3.63;2.50;;;;;;;;;;4994404;28;20448;-66
2021/12/10 00:56:08;;;;;;;5.03;2.87;;;;;;;;;;4994564;28;20574;-64
2021/12/10 00:58:35;;;;;;;9.40;3.43;;;;;;;;;;4994447;28;20409;-64
2021/12/10 01:01:04;;;;;;;2.93;1.83;;;;;;;;;;4994509;28;20405;-64
2021/12/10 01:03:32;;;;;;;6.30;2.30;;;;;;;;;;4994312;28;20428;-64
2021/12/10 01:06:01;;;;;;;4.47;2.00;;;;;;;;;;4994278;28;20419;-64
2021/12/10 01:08:28;;;;;;;3.37;2.13;;;;;;;;;;4994448;28;20408;-64
2021/12/10 01:10:58;;;;;;;6.10;2.10;;;;;;;;;;4993674;28;20408;-64
2021/12/10 01:13:29;;;;;;;3.70;1.80;;;;;;;;;;5001784;28;20561;-64
2021/12/10 01:23:37;;;;;;;3.53;2.50;;;;;;;;;;5000910;28;20416;-64
2021/12/10 01:25:07;;;;;;;6.20;2.00;;;;;;;;;;4985466;28;20407;-64
2021/12/10 01:27:30;;;;;;;7.87;2.03;;;;;;;;;;4992571;28;20793;-64
2021/12/10 01:29:57;;;;;;;2.17;1.50;;;;;;;;;;4993937;28;20389;-64
2021/12/10 01:32:25;;;;;;;5.83;2.10;;;;;;;;;;4993956;28;20845;-64
2021/12/10 01:34:51;;;;;;;5.37;2.40;;;;;;;;;;4993890;28;20488;-64
2021/12/10 01:37:17;;;;;;;3.40;1.77;;;;;;;;;;4994047;28;20794;-64
2021/12/10 01:39:44;;;;;;;5.97;2.77;;;;;;;;;;4993726;28;20466;-64
2021/12/10 01:42:16;;;;;;;4.90;1.90;;;;;;;;;;4993556;28;20572;-64
2021/12/10 01:44:45;;;;;;;6.00;2.93;;;;;;;;;;4993635;28;20883;-64
2021/12/10 01:47:11;;;;;;;4.60;2.83;;;;;;;;;;4993873;28;20411;-64
2021/12/10 01:49:39;;;;;;;3.87;2.50;;;;;;;;;;4993553;28;20416;-64
2021/12/10 01:52:06;;;;;;;4.17;2.90;;;;;;;;;;4993377;28;20471;-64
2021/12/10 01:54:36;;;;;;;5.50;2.57;;;;;;;;;;4993534;28;20431;-64
2021/12/10 01:57:03;;;;;;;5.40;2.77;;;;;;;;;;4993464;28;20500;-64
2021/12/10 01:59:30;;;;;;;2.83;2.30;;;;;;;;;;4993409;28;20836;-64
2021/12/10 02:01:58;;;;;;;5.20;2.30;;;;;;;;;;4993766;28;20771;-64
2021/12/10 02:04:25;;;;;;;4.77;2.63;;;;;;;;;;4993393;28;20432;-64
2021/12/10 02:06:52;;;;;;;4.70;2.50;;;;;;;;;;4993401;28;20804;-64
2021/12/10 02:09:18;;;;;;;5.30;2.53;;;;;;;;;;4993336;28;20440;-64
2021/12/10 02:11:44;;;;;;;4.90;2.37;;;;;;;;;;4994541;28;20439;-65
2021/12/10 02:14:10;;;;;;;4.60;2.37;;;;;;;;;;5003977;28;20468;-64
2021/12/10 02:16:37;;;;;;;3.20;2.03;;;;;;;;;;4993314;28;20409;-64
2021/12/10 02:19:04;;;;;;;8.83;2.50;;;;;;;;;;4975798;28;20404;-64
2021/12/10 02:21:33;;;;;;;4.57;2.30;;;;;;;;;;4993076;28;20420;-64
2021/12/10 02:24:00;;;;;;;6.23;3.13;;;;;;;;;;4997595;28;20862;-64
2021/12/10 02:26:27;;;;;;;2.67;2.07;;;;;;;;;;4997632;28;20825;-64
2021/12/10 02:28:54;;;;;;;3.10;2.03;;;;;;;;;;4997297;28;20408;-64
2021/12/10 02:31:20;;;;;;;3.37;2.20;;;;;;;;;;4997487;28;20827;-64
2021/12/10 02:33:46;;;;;;;4.67;2.43;;;;;;;;;;4997249;28;20556;-64
2021/12/10 02:36:12;;;;;;;3.33;2.37;;;;;;;;;;4997322;28;20403;-64
2021/12/10 02:38:43;;;;;;;4.50;2.30;;;;;;;;;;4997021;28;20487;-64
2021/12/10 02:41:09;;;;;;;3.30;2.30;;;;;;;;;;4997272;28;20388;-64
2021/12/10 02:43:36;;;;;;;3.97;2.27;;;;;;;;;;4997016;28;20520;-64
2021/12/10 02:46:02;;;;;;;3.10;1.97;;;;;;;;;;4996835;28;20409;-64
2021/12/10 02:48:28;;;;;;;5.60;2.47;;;;;;;;;;4997127;28;20412;-64
2021/12/10 02:50:56;;;;;;;6.80;2.33;;;;;;;;;;4996748;28;20423;-64
2021/12/10 02:53:27;;;;;;;4.17;2.67;;;;;;;;;;4996853;28;20510;-63
2021/12/10 02:55:53;;;;;;;5.47;2.83;;;;;;;;;;4996921;28;20755;-63
2021/12/10 02:58:19;;;;;;;2.20;1.73;;;;;;;;;;4996910;28;20539;-65
2021/12/10 03:00:50;;;;;;;4.57;2.20;;;;;;;;;;4996717;28;20400;-63
2021/12/10 03:03:17;;;;;;;2.23;2.00;;;;;;;;;;4996663;28;20428;-63
2021/12/10 03:05:43;;;;;;;3.10;2.10;;;;;;;;;;4996603;28;20461;-63
2021/12/10 03:08:09;;;;;;;4.50;2.20;;;;;;;;;;4996572;28;20459;-63
2021/12/10 03:10:35;;;;;;;4.27;2.50;;;;;;;;;;4996369;28;20441;-65
2021/12/10 03:13:02;;;;;;;3.07;2.13;;;;;;;;;;4996124;28;20468;-65
2021/12/10 03:15:28;;;;;;;3.37;2.03;;;;;;;;;;4996423;28;20415;-65
2021/12/10 03:17:55;;;;;;;3.60;2.00;;;;;;;;;;4996347;28;20415;-63
2021/12/10 03:20:22;;;;;;;2.87;1.97;;;;;;;;;;4996432;28;20420;-63
2021/12/10 03:22:48;;;;;;;2.97;2.03;;;;;;;;;;4996291;28;20806;-62
2021/12/10 03:25:16;;;;;;;3.50;2.47;;;;;;;;;;4996490;28;20926;-63
2021/12/10 03:27:43;;;;;;;4.80;2.47;;;;;;;;;;4996303;28;20532;-65
2021/12/10 03:30:15;;;;;;;5.57;2.30;;;;;;;;;;4996158;28;20409;-63
2021/12/10 03:32:41;;;;;;;5.33;2.00;;;;;;;;;;4996326;28;20831;-63
2021/12/10 03:35:10;;;;;;;10.23;2.67;;;;;;;;;;4994513;28;20827;-63
2021/12/10 03:37:36;;;;;;;4.23;2.43;;;;;;;;;;4995847;28;20778;-63
2021/12/10 03:40:04;;;;;;;14.03;2.80;;;;;;;;;;4995943;28;20409;-63
2021/12/10 03:42:30;;;;;;;6.70;2.30;;;;;;;;;;4995753;28;20417;-63
2021/12/10 03:44:56;;;;;;;3.17;1.90;;;;;;;;;;4999542;28;20759;-63
2021/12/10 03:47:22;;;;;;;3.07;2.00;;;;;;;;;;5004679;28;20492;-63
2021/12/10 03:49:49;;;;;;;3.60;2.47;;;;;;;;;;5010383;28;20428;-63
2021/12/10 03:52:15;;;;;;;3.73;2.33;;;;;;;;;;4997466;28;20428;-63
2021/12/10 03:54:41;;;;;;;6.43;2.13;;;;;;;;;;4995977;28;20737;-63
2021/12/10 03:57:08;;;;;;;3.33;1.83;;;;;;;;;;4995620;28;20458;-63
2021/12/10 03:59:36;;;;;;;2.43;1.67;;;;;;;;;;4995378;28;20417;-63
2021/12/10 04:02:03;;;;;;;2.17;1.50;;;;;;;;;;4995392;28;20475;-63
2021/12/10 04:04:39;;;;;;;3.00;1.40;;;;;;;;;;4995465;28;20440;-63
2021/12/10 04:07:08;;;;;;;6.00;2.07;;;;;;;;;;4995383;28;20400;-63
2021/12/10 04:09:34;;;;;;;2.40;1.67;;;;;;;;;;4995708;28;20432;-63
2021/12/10 04:12:00;;;;;;;2.13;1.57;;;;;;;;;;4977633;28;20451;-62
2021/12/10 04:14:26;;;;;;;2.30;2.10;;;;;;;;;;4995259;28;20432;-65
2021/12/10 04:16:57;;;;;;;2.57;1.70;;;;;;;;;;4995490;28;20409;-63
2021/12/10 04:19:24;;;;;;;2.17;1.57;;;;;;;;;;4995239;28;20458;-63
2021/12/10 04:21:52;;;;;;;2.20;1.47;;;;;;;;;;4995393;28;20834;-65
2021/12/10 04:24:19;;;;;;;5.10;2.50;;;;;;;;;;4995137;28;20903;-65
2021/12/10 04:26:46;;;;;;;5.13;1.77;;;;;;;;;;4994940;28;20420;-65
2021/12/10 04:29:12;;;;;;;2.30;1.60;;;;;;;;;;5014070;28;20431;-65
2021/12/10 04:31:39;;;;;;;2.17;1.67;;;;;;;;;;5007889;28;20431;-66
2021/12/10 04:34:05;;;;;;;2.30;1.70;;;;;;;;;;5007766;28;20495;-63
2021/12/10 04:36:32;;;;;;;5.50;1.50;;;;;;;;;;5014481;28;20400;-63
2021/12/10 04:38:58;;;;;;;2.20;1.60;;;;;;;;;;5014515;28;20392;-64
2021/12/10 04:41:24;;;;;;;3.33;1.60;;;;;;;;;;5014699;28;20408;-63
2021/12/10 04:43:50;;;;;;;2.60;1.50;;;;;;;;;;5014550;28;20515;-63
2021/12/10 04:46:16;;;;;;;4.10;1.90;;;;;;;;;;5013418;28;20956;-63
2021/12/10 04:49:03;;;;;;;3.93;1.43;;;;;;;;;;5014242;28;20400;-63
2021/12/10 04:51:30;;;;;;;5.90;1.60;;;;;;;;;;5014009;28;20415;-63
2021/12/10 04:53:57;;;;;;;1.80;1.60;;;;;;;;;;5014352;28;20454;-63
2021/12/10 04:56:24;;;;;;;3.97;1.53;;;;;;;;;;5014126;28;20439;-63
2021/12/10 04:58:50;;;;;;;3.20;2.10;;;;;;;;;;5014119;28;20431;-63
2021/12/10 05:01:16;;;;;;;3.10;1.90;;;;;;;;;;5014237;28;20487;-63
2021/12/10 05:03:43;;;;;;;2.90;1.73;;;;;;;;;;5014356;28;20503;-63
2021/12/10 05:06:09;;;;;;;4.20;2.20;;;;;;;;;;5014231;28;20403;-63
2021/12/10 05:08:36;;;;;;;2.10;1.57;;;;;;;;;;5014235;28;20431;-63
2021/12/10 05:11:03;;;;;;;5.20;2.50;;;;;;;;;;5015926;28;20443;-65
2021/12/10 05:13:29;;;;;;;3.13;1.53;;;;;;;;;;5015144;28;20842;-65
2021/12/10 05:15:58;;;;;;;2.60;1.53;;;;;;;;;;5014903;28;20392;-66
2021/12/10 05:18:29;;;;;;;2.50;1.87;;;;;;;;;;5014704;28;20456;-65
2021/12/10 05:20:55;;;;;;;2.70;1.70;;;;;;;;;;5014364;28;20475;-64
2021/12/10 05:23:21;;;;;;;5.50;1.90;;;;;;;;;;5013852;28;20478;-63
2021/12/10 05:25:48;;;;;;;2.87;1.83;;;;;;;;;;5014146;28;20812;-63
2021/12/10 05:28:14;;;;;;;3.30;2.10;;;;;;;;;;5013724;28;20404;-63
2021/12/10 05:30:41;;;;;;;2.90;1.90;;;;;;;;;;5013879;28;20395;-63
2021/12/10 05:33:14;;;;;;;5.60;2.10;;;;;;;;;;5013508;28;20451;-65
2021/12/10 05:35:40;;;;;;;3.20;2.17;;;;;;;;;;5013720;28;20395;-63
2021/12/10 05:38:06;;;;;;;2.17;1.80;;;;;;;;;;5013637;28;20910;-63
2021/12/10 05:40:32;;;;;;;3.60;2.13;;;;;;;;;;4995974;28;20412;-65
2021/12/10 05:42:58;;;;;;;2.57;1.70;;;;;;;;;;5013806;28;20431;-65
2021/12/10 05:45:24;;;;;;;3.07;1.83;;;;;;;;;;5013689;28;20419;-65
2021/12/10 05:47:51;;;;;;;2.57;2.10;;;;;;;;;;5013494;28;20909;-63
2021/12/10 05:50:19;;;;;;;4.93;1.80;;;;;;;;;;5013379;28;20818;-65
2021/12/10 05:52:45;;;;;;;3.17;1.90;;;;;;;;;;5013317;28;20973;-65
2021/12/10 05:55:12;;;;;;;3.83;1.90;;;;;;;;;;5013607;28;20404;-65
2021/12/10 05:57:38;;;;;;;2.17;1.67;;;;;;;;;;5013257;28;20769;-63
2021/12/10 06:00:07;;;;;;;4.93;2.47;;;;;;;;;;5013562;28;20535;-63
2021/12/10 06:02:33;;;;;;;3.23;2.00;;;;;;;;;;5013206;28;20792;-63
2021/12/10 06:04:59;;;;;;;3.77;2.37;;;;;;;;;;5013350;28;20929;-65
2021/12/10 06:07:26;;;;;;;4.10;1.83;;;;;;;;;;5013217;28;20424;-65
2021/12/10 06:09:52;;;;;;;4.33;2.10;;;;;;;;;;5013329;28;20403;-64
2021/12/10 06:12:18;;;;;;;5.17;1.63;;;;;;;;;;5013018;28;20482;-64
2021/12/10 06:14:44;;;;;;;2.93;2.07;;;;;;;;;;5013458;28;20905;-63
2021/12/10 06:17:10;;;;;;;3.60;1.70;;;;;;;;;;5013302;28;20458;-63
2021/12/10 06:19:37;;;;;;;2.63;1.93;;;;;;;;;;5013397;28;20431;-63
2021/12/10 06:22:03;;;;;;;4.33;2.17;;;;;;;;;;5012943;28;20431;-63
2021/12/10 06:24:29;;;;;;;3.40;2.27;;;;;;;;;;5013365;28;20858;-63
2021/12/10 06:26:55;;;;;;;3.37;2.10;;;;;;;;;;5013229;28;20542;-63
2021/12/10 06:29:23;;;;;;;3.80;1.83;;;;;;;;;;5013001;28;20400;-63
2021/12/10 06:31:50;;;;;;;7.37;3.10;;;;;;;;;;5012887;28;20427;-63
2021/12/10 06:34:16;;;;;;;4.50;2.87;;;;;;;;;;5012889;28;20435;-63
2021/12/10 06:36:42;;;;;;;4.47;3.27;;;;;;;;;;5013080;28;20408;-63
2021/12/10 06:39:09;;;;;;;4.67;2.50;;;;;;;;;;5012941;28;20392;-63
2021/12/10 06:41:35;;;;;;;4.80;2.83;;;;;;;;;;5012802;28;20404;-65
2021/12/10 06:44:04;;;;;;;4.10;3.60;;;;;;;;;;5012809;28;20976;-63
2021/12/10 06:46:37;;;;;;;5.17;3.17;;;;;;;;;;5012823;28;20495;-63
2021/12/10 06:49:04;;;;;;;6.83;3.03;;;;;;;;;;5012729;28;20921;-63
2021/12/10 06:51:30;;;;;;;4.97;3.90;;;;;;;;;;5012634;28;20773;-63
2021/12/10 06:53:56;;;;;;;5.90;3.50;;;;;;;;;;5012524;28;20443;-64
2021/12/10 06:56:23;;;;;;;9.63;3.83;;;;;;;;;;5012555;28;20435;-64
2021/12/10 06:58:50;;;;;;;5.83;4.03;;;;;;;;;;5012660;28;20404;-64
2021/12/10 07:01:21;;;;;;;5.80;4.73;;;;;;;;;;5012505;28;20411;-64
2021/12/10 07:03:48;;;;;;;7.07;5.07;;;;;;;;;;5012873;28;20443;-64
2021/12/10 07:06:15;;;;;;;7.57;4.70;;;;;;;;;;5012595;28;20411;-64
2021/12/10 07:08:43;;;;;;;8.73;5.17;;;;;;;;;;5013228;28;20404;-64
2021/12/10 07:11:11;;;;;;;12.77;6.40;;;;;;;;;;5016198;28;20980;-64
2021/12/10 07:13:37;;;;;;;8.20;5.90;;;;;;;;;;5013885;28;20467;-63
2021/12/10 07:16:04;;;;;;;9.33;6.30;;;;;;;;;;5016006;28;20432;-64
2021/12/10 07:18:31;;;;;;;12.70;5.97;;;;;;;;;;5016024;28;20446;-64
2021/12/10 07:20:57;;;;;;;9.50;6.63;;;;;;;;;;5015977;28;20391;-64
2021/12/10 07:23:23;;;;;;;8.17;5.87;;;;;;;;;;5016162;28;20466;-64
2021/12/10 07:25:49;;;;;;;8.67;6.70;;;;;;;;;;5016046;28;20404;-64
2021/12/10 07:28:16;;;;;;;9.30;6.33;;;;;;;;;;5016123;28;20866;-64
2021/12/10 07:30:42;;;;;;;10.30;6.33;;;;;;;;;;5016003;28;20412;-64
2021/12/10 07:33:09;;;;;;;8.33;6.70;;;;;;;;;;5015649;28;20981;-64
2021/12/10 07:35:35;;;;;;;8.87;6.20;;;;;;;;;;4998207;28;20494;-64
2021/12/10 07:38:02;;;;;;;9.60;7.00;;;;;;;;;;5015686;28;20446;-64
2021/12/10 07:40:29;;;;;;;11.70;7.03;;;;;;;;;;5015673;28;20408;-64
2021/12/10 07:42:55;;;;;;;10.97;6.70;;;;;;;;;;5015669;28;20423;-64
2021/12/10 07:45:22;;;;;;;10.90;7.50;;;;;;;;;;5015919;28;20482;-64
2021/12/10 07:47:52;;;;;;;9.37;6.30;;;;;;;;;;5015538;28;20502;-64
2021/12/10 07:50:21;;;;;;;10.40;6.90;;;;;;;;;;5015591;28;20412;-64
2021/12/10 07:52:48;;;;;;;9.50;6.40;;;;;;;;;;5015574;28;20505;-64
2021/12/10 07:55:16;;;;;;;10.87;7.47;;;;;;;;;;5014998;28;20415;-64
2021/12/10 07:57:42;;;;;;;10.17;6.87;;;;;;;;;;5015426;28;20831;-64
2021/12/10 08:00:10;;;;;;;9.73;7.50;;;;;;;;;;5013973;28;20420;-64
2021/12/10 08:02:37;;;;;;;14.10;7.47;;;;;;;;;;5006359;28;20439;-67
2021/12/10 08:05:03;;;;;;;11.30;7.17;;;;;;;;;;5014824;28;20758;-66
2021/12/10 08:07:29;;;;;;;10.03;6.00;;;;;;;;;;5015314;28;20406;-67
2021/12/10 08:09:55;;;;;;;9.17;6.20;;;;;;;;;;5015118;28;20478;-67
2021/12/10 08:12:21;;;;;;;11.03;6.27;;;;;;;;;;5015129;28;20482;-67
2021/12/10 08:14:52;;;;;;;9.07;6.30;;;;;;;;;;5012763;28;20438;-67
2021/12/10 08:17:19;;;;;;;13.40;6.30;;;;;;;;;;5014920;28;20394;-68
2021/12/10 08:19:45;;;;;;;10.77;6.10;;;;;;;;;;5014077;28;20418;-65
2021/12/10 08:22:11;;;;;;;15.13;6.70;;;;;;;;;;5013845;28;20459;-65
2021/12/10 08:24:37;;;;;;;8.97;6.30;;;;;;;;;;4995016;28;20484;-65
2021/12/10 08:27:03;;;;;;;8.90;5.30;;;;;;;;;;5011500;28;20422;-67
2021/12/10 08:29:29;;;;;;;7.70;5.90;;;;;;;;;;5007176;28;20516;-68
2021/12/10 08:31:55;;;;;;;8.60;5.80;;;;;;;;;;5010805;28;20471;-67
2021/12/10 08:34:22;;;;;;;11.20;5.70;;;;;;;;;;5030915;28;20457;-69
2021/12/10 08:36:48;;;;;;;7.60;4.90;;;;;;;;;;5030933;28;20403;-69
2021/12/10 08:39:14;;;;;;;6.90;5.00;;;;;;;;;;5014571;28;20805;-70
2021/12/10 08:41:41;;;;;;;10.10;6.33;;;;;;;;;;5012284;28;20409;-68
2021/12/10 08:44:08;;;;;;;7.50;4.80;;;;;;;;;;5005860;28;20907;-70
2021/12/10 08:46:35;;;;;;;6.30;4.47;;;;;;;;;;5010994;28;20410;-68
2021/12/10 08:49:03;;;;;;;6.57;4.67;;;;;;;;;;5014564;28;20440;-68
2021/12/10 08:51:31;;;;;;;6.47;4.73;;;;;;;;;;5014606;28;20911;-68
2021/12/10 08:53:58;;;;;;;8.50;5.03;;;;;;;;;;5012876;28;20481;-69
2021/12/10 08:56:24;;;;;;;9.17;5.47;;;;;;;;;;5013299;28;20418;-68
2021/12/10 08:58:51;;;;;;;9.27;5.80;;;;;;;;;;4996408;28;20411;-69
2021/12/10 09:01:19;;;;;;;7.67;5.30;;;;;;;;;;4997160;28;20824;-69
2021/12/10 09:03:48;;;;;;;7.23;4.17;;;;;;;;;;5013847;28;20423;-69
2021/12/10 09:06:15;;;;;;;5.70;4.63;;;;;;;;;;5014167;28;20777;-68
2021/12/10 09:08:41;;;;;;;6.87;4.90;;;;;;;;;;5014064;28;20396;-68
2021/12/10 09:11:07;;;;;;;8.20;5.23;;;;;;;;;;5013999;28;20412;-69
2021/12/10 09:13:33;;;;;;;8.67;5.60;;;;;;;;;;5011380;28;20508;-65
2021/12/10 09:16:02;;;;;;;7.77;4.20;;;;;;;;;;5014386;28;20426;-65
2021/12/10 09:18:28;;;;;;;11.73;5.90;;;;;;;;;;5013305;28;20404;-69
2021/12/10 09:20:55;;;;;;;9.60;5.23;;;;;;;;;;4997627;28;20425;-70
2021/12/10 09:23:24;;;;;;;14.73;6.23;;;;;;;;;;5012252;28;20447;-64
2021/12/10 09:25:54;;;;;;;11.83;5.47;;;;;;;;;;5013366;28;20458;-65
2021/12/10 09:28:20;;;;;;;9.67;5.03;;;;;;;;;;5012162;28;20846;-65
2021/12/10 09:30:48;;;;;;;6.67;4.80;;;;;;;;;;5010270;28;20427;-69
2021/12/10 09:33:14;;;;;;;5.17;3.43;;;;;;;;;;5013083;28;20459;-69
2021/12/10 09:35:41;;;;;;;7.67;5.07;;;;;;;;;;4996269;28;20929;-66
2021/12/10 09:38:08;;;;;;;15.97;6.13;;;;;;;;;;5014290;28;20415;-71
2021/12/10 09:40:36;;;;;;;9.87;5.40;;;;;;;;;;5013774;28;20403;-71
2021/12/10 09:43:05;;;;;;;5.93;4.13;;;;;;;;;;4995865;28;20431;-70
2021/12/10 09:45:33;;;;;;;10.37;4.70;;;;;;;;;;5013025;28;20423;-70
2021/12/10 09:48:00;;;;;;;10.87;5.63;;;;;;;;;;5004094;28;20416;-69
2021/12/10 09:50:28;;;;;;;9.30;3.90;;;;;;;;;;5004925;28;20418;-70
2021/12/10 09:52:54;;;;;;;5.73;4.10;;;;;;;;;;5011028;28;20825;-71
2021/12/10 09:55:20;;;;;;;8.70;4.60;;;;;;;;;;5012860;28;20416;-67
2021/12/10 09:57:47;;;;;;;4.93;3.40;;;;;;;;;;5012939;28;20431;-66
2021/12/10 10:00:17;;;;;;;4.93;3.80;;;;;;;;;;5013064;28;20410;-65
2021/12/10 10:02:44;;;;;;;6.43;4.03;;;;;;;;;;5012808;28;20419;-66
2021/12/10 10:05:10;;;;;;;6.63;4.60;;;;;;;;;;5012890;28;20435;-67
2021/12/10 10:07:38;;;;;;;6.63;3.50;;;;;;;;;;5012971;28;20391;-68
2021/12/10 10:10:15;;;;;;;7.03;4.10;;;;;;;;;;5013282;28;20411;-68
2021/12/10 10:12:43;;;;;;;7.27;4.00;;;;;;;;;;5012676;28;20450;-75
2021/12/10 10:15:12;;;;;;;5.57;3.33;;;;;;;;;;5013202;28;20446;-70
2021/12/10 10:17:38;;;;;;;4.67;3.37;;;;;;;;;;5012525;28;20494;-69
2021/12/10 10:20:05;;;;;;;6.07;3.77;;;;;;;;;;5010947;28;20412;-69
2021/12/10 10:22:32;;;;;;;6.13;3.53;;;;;;;;;;5011367;28;20518;-69
2021/12/10 10:24:58;;;;;;;6.27;3.80;;;;;;;;;;4997265;28;20401;-69
2021/12/10 10:27:30;;;;;;;7.90;4.27;;;;;;;;;;4998114;28;20447;-72
2021/12/10 10:29:58;;;;;;;6.10;3.20;;;;;;;;;;5008758;28;20427;-70
2021/12/10 10:32:25;;;;;;;6.30;4.13;;;;;;;;;;5011470;28;20447;-69
2021/12/10 10:34:54;;;;;;;5.20;3.40;;;;;;;;;;5012541;28;20593;-67
2021/12/10 10:37:20;;;;;;;7.07;4.37;;;;;;;;;;5011388;28;22070;-71
2021/12/10 10:39:47;;;;;;;6.60;3.60;;;;;;;;;;5011996;28;20430;-66
2021/12/10 10:42:20;;;;;;;12.03;4.00;;;;;;;;;;5011938;28;20502;-66
2021/12/10 10:44:47;;;;;;;5.97;3.37;;;;;;;;;;5014609;28;20467;-69
2021/12/10 10:47:13;;;;;;;4.53;3.20;;;;;;;;;;5016387;28;20866;-65
2021/12/10 10:49:48;;;;;;;4.50;3.20;;;;;;;;;;5016420;28;20837;-65
2021/12/10 10:52:14;;;;;;;13.10;5.30;;;;;;;;;;5016113;28;20427;-65
2021/12/10 10:54:40;;;;;;;5.40;3.70;;;;;;;;;;5016446;28;20431;-67
2021/12/10 10:57:14;;;;;;;6.13;3.70;;;;;;;;;;5015313;28;20910;-66
2021/12/10 10:59:40;;;;;;;10.50;4.67;;;;;;;;;;5016270;28;20791;-66
2021/12/10 11:02:08;;;;;;;7.80;4.07;;;;;;;;;;5016135;28;20431;-66
2021/12/10 11:04:36;;;;;;;9.30;4.07;;;;;;;;;;5012926;28;20419;-66
2021/12/10 11:07:05;;;;;;;9.93;3.70;;;;;;;;;;5015812;28;20415;-66
2021/12/10 11:09:32;;;;;;;5.90;3.97;;;;;;;;;;5016048;28;20407;-66
2021/12/10 11:12:09;;;;;;;6.70;4.27;;;;;;;;;;5012254;28;20463;-73
2021/12/10 11:14:37;;;;;;;5.27;3.57;;;;;;;;;;5001785;28;20447;-70
2021/12/10 11:17:15;;;;;;;7.30;3.27;;;;;;;;;;5019669;28;20451;-71
2021/12/10 11:19:47;;;;;;;5.37;3.40;;;;;;;;;;4997278;28;20415;-66
2021/12/10 11:22:15;;;;;;;5.87;3.07;;;;;;;;;;5015400;28;20991;-69
2021/12/10 11:24:44;;;;;;;4.97;3.70;;;;;;;;;;5014551;28;20399;-70
2021/12/10 11:27:30;;;;;;;5.30;3.60;;;;;;;;;;4992869;28;20790;-69
2021/12/10 11:30:02;;;;;;;5.67;3.40;;;;;;;;;;5014239;28;20412;-70
2021/12/10 11:32:32;;;;;;;4.60;3.47;;;;;;;;;;4995933;28;21161;-72
2021/12/10 11:35:04;;;;;;;5.03;4.03;;;;;;;;;;5012959;28;20427;-69
2021/12/10 11:37:49;;;;;;;5.03;3.10;;;;;;;;;;5014642;28;20941;-69
2021/12/10 11:40:21;;;;;;;5.73;3.80;;;;;;;;;;5015341;28;20565;-69
2021/12/10 11:42:54;;;;;;;6.20;3.53;;;;;;;;;;5015016;28;20408;-66
2021/12/10 11:45:31;;;;;;;5.00;2.80;;;;;;;;;;5012156;28;20399;-69
2021/12/10 11:48:07;;;;;;;4.67;3.50;;;;;;;;;;5014555;28;20553;-68
2021/12/10 11:50:34;;;;;;;4.83;3.83;;;;;;;;;;4995485;28;20822;-69
2021/12/10 11:53:12;;;;;;;8.53;4.20;;;;;;;;;;5013195;28;20443;-68
2021/12/10 11:55:53;;;;;;;6.90;3.40;;;;;;;;;;5012290;28;20412;-69
2021/12/10 11:58:19;;;;;;;6.23;4.17;;;;;;;;;;5013862;28;20411;-69
2021/12/10 12:00:46;;;;;;;5.03;3.63;;;;;;;;;;4994554;28;20415;-69
2021/12/10 12:03:13;;;;;;;8.20;3.90;;;;;;;;;;5007750;28;20447;-70
2021/12/10 12:05:41;;;;;;;5.43;4.13;;;;;;;;;;4996355;28;20478;-65
2021/12/10 12:08:09;;;;;;;8.13;3.60;;;;;;;;;;5009065;28;20461;-66
2021/12/10 12:10:40;;;;;;;4.40;3.20;;;;;;;;;;5014725;28;20403;-66
2021/12/10 12:13:20;;;;;;;6.70;3.60;;;;;;;;;;5014678;28;20459;-66
2021/12/10 12:15:46;;;;;;;7.20;3.73;;;;;;;;;;5012324;28;20506;-69
2021/12/10 12:18:22;;;;;;;5.23;4.07;;;;;;;;;;5012852;28;20972;-70
2021/12/10 12:20:49;;;;;;;6.07;3.97;;;;;;;;;;4998427;28;20471;-71
2021/12/10 12:26:08;;;;;;;5.13;3.00;;;;;;;;;;5014848;28;20398;-71
2021/12/10 12:28:37;;;;;;;7.27;5.50;;;;;;;;;;5014974;28;20474;-70
2021/12/10 12:31:05;;;;;;;17.93;10.87;;;;;;;;;;5014042;28;20810;-65
2021/12/10 12:33:49;;;;;;;7.10;4.43;;;;;;;;;;5002581;28;20456;-69
2021/12/10 12:36:15;;;;;;;7.27;3.70;;;;;;;;;;5014271;28;20832;-70
2021/12/10 12:38:43;;;;;;;4.43;3.13;;;;;;;;;;5014025;28;20415;-69
2021/12/10 12:41:20;;;;;;;6.47;3.23;;;;;;;;;;5013811;28;20972;-69
2021/12/10 12:43:48;;;;;;;4.73;3.50;;;;;;;;;;5013159;28;20427;-69
2021/12/10 12:46:15;;;;;;;5.30;3.40;;;;;;;;;;5013182;28;20447;-69
2021/12/10 12:48:58;;;;;;;5.03;3.57;;;;;;;;;;5013936;28;20495;-67
2021/12/10 12:51:25;;;;;;;5.17;3.17;;;;;;;;;;4994789;28;20821;-70
2021/12/10 12:53:52;;;;;;;4.20;3.53;;;;;;;;;;5005859;28;20451;-65
2021/12/10 12:56:18;;;;;;;6.20;3.43;;;;;;;;;;5009261;28;20473;-69
2021/12/10 12:58:49;;;;;;;6.00;2.90;;;;;;;;;;5014193;28;20392;-68
2021/12/10 13:01:24;;;;;;;5.20;3.53;;;;;;;;;;5013536;28;20827;-68
2021/12/10 13:03:55;;;;;;;9.27;4.60;;;;;;;;;;5012076;28;20802;-68
2021/12/10 13:06:24;;;;;;;4.33;3.10;;;;;;;;;;4981834;28;20404;-65
2021/12/10 13:09:10;;;;;;;5.93;3.37;;;;;;;;;;5011024;28;20824;-66
2021/12/10 13:11:47;;;;;;;7.67;4.00;;;;;;;;;;5011011;28;20490;-68
2021/12/10 13:14:18;;;;;;;5.70;3.50;;;;;;;;;;5007582;28;20845;-68
2021/12/10 13:16:46;;;;;;;10.47;2.77;;;;;;;;;;4993911;28;20836;-66
2021/12/10 13:19:16;;;;;;;5.40;2.73;;;;;;;;;;5013324;28;20827;-66
2021/12/10 13:21:43;;;;;;;6.13;3.17;;;;;;;;;;5013207;28;20392;-66
2021/12/10 13:24:10;;;;;;;7.13;2.83;;;;;;;;;;5013605;28;20454;-66
2021/12/10 13:26:36;;;;;;;5.10;2.63;;;;;;;;;;5013614;28;20490;-66
2021/12/10 13:29:03;;;;;;;3.93;2.50;;;;;;;;;;5013758;28;20478;-66
2021/12/10 13:31:29;;;;;;;10.57;3.30;;;;;;;;;;5013624;28;20406;-66
2021/12/10 13:33:56;;;;;;;3.93;3.10;;;;;;;;;;5013340;28;20447;-65
2021/12/10 13:36:22;;;;;;;15.23;3.00;;;;;;;;;;5013533;28;20404;-66
2021/12/10 13:38:51;;;;;;;3.20;2.60;;;;;;;;;;5014118;28;20825;-66
2021/12/10 13:41:18;;;;;;;4.70;3.10;;;;;;;;;;5013276;28;20949;-66
2021/12/10 13:43:50;;;;;;;5.53;2.87;;;;;;;;;;5013188;28;20458;-66
2021/12/10 13:46:21;;;;;;;4.00;2.77;;;;;;;;;;5013677;28;20768;-65
2021/12/10 13:48:52;;;;;;;4.50;3.00;;;;;;;;;;5012998;28;20396;-65
2021/12/10 13:51:24;;;;;;;4.00;2.97;;;;;;;;;;5013260;28;20404;-65
2021/12/10 13:54:07;;;;;;;5.43;2.63;;;;;;;;;;4995402;28;20460;-65
2021/12/10 13:56:34;;;;;;;3.67;2.50;;;;;;;;;;5013239;28;20396;-65
2021/12/10 13:59:02;;;;;;;2.33;2.10;;;;;;;;;;5013743;28;20469;-65
2021/12/10 14:01:34;;;;;;;8.27;2.50;;;;;;;;;;4995574;28;20408;-65
2021/12/10 14:04:02;;;;;;;3.10;2.20;;;;;;;;;;5013037;28;20905;-65
2021/12/10 14:06:31;;;;;;;4.70;2.63;;;;;;;;;;5013205;28;20407;-66
2021/12/10 14:09:07;;;;;;;3.47;2.30;;;;;;;;;;5013110;28;20918;-65
2021/12/10 14:11:51;;;;;;;5.10;2.57;;;;;;;;;;5013239;28;20465;-65
2021/12/10 14:14:17;;;;;;;3.10;1.93;;;;;;;;;;5012947;28;20444;-65
2021/12/10 14:16:48;;;;;;;5.33;2.17;;;;;;;;;;5013255;28;20396;-65
2021/12/10 14:19:33;;;;;;;8.03;3.00;;;;;;;;;;5016010;28;20794;-64
2021/12/10 14:21:59;;;;;;;8.30;2.90;;;;;;;;;;5016502;28;20446;-66
2021/12/10 14:24:35;;;;;;;6.13;3.20;;;;;;;;;;5016887;28;20941;-66
2021/12/10 14:27:04;;;;;;;3.70;2.27;;;;;;;;;;5017412;28;20774;-66
2021/12/10 14:29:30;;;;;;;3.60;2.70;;;;;;;;;;5015059;28;20494;-64
2021/12/10 14:31:56;;;;;;;12.63;5.17;;;;;;;;;;5015082;28;20435;-68
2021/12/10 14:34:23;;;;;;;4.20;3.30;;;;;;;;;;5022653;28;20454;-68
2021/12/10 14:37:01;;;;;;;8.17;3.23;;;;;;;;;;5016805;28;20395;-66
2021/12/10 14:39:27;;;;;;;3.50;2.60;;;;;;;;;;4999088;28;20970;-68
2021/12/10 14:41:55;;;;;;;6.27;2.87;;;;;;;;;;5009339;28;20435;-68
2021/12/10 14:44:29;;;;;;;4.60;2.80;;;;;;;;;;5016644;28;20472;-68
2021/12/10 14:46:57;;;;;;;7.13;4.63;;;;;;;;;;4998902;28;20404;-68
2021/12/10 14:49:37;;;;;;;4.60;3.10;;;;;;;;;;5016876;28;20415;-68
2021/12/10 14:52:09;;;;;;;4.43;2.50;;;;;;;;;;5015694;28;20431;-68
2021/12/10 14:54:51;;;;;;;4.97;2.87;;;;;;;;;;5001380;28;20452;-67
2021/12/10 14:57:17;;;;;;;4.13;2.70;;;;;;;;;;4997043;28;20404;-68
2021/12/10 14:59:44;;;;;;;6.27;2.97;;;;;;;;;;5003682;28;20437;-66